Time;durP1;ratioP1;P1;durP2;ratioP2;P2;SDS_P1;SDS_P2;PMS_P1;PMS_P2;Temp;Humidity;BMP_temperature;BMP_pressure;BME280_temperature;BME280_humidity;BME280_pressure;Samples;Min_cycle;Max_cycle;Signal;HPM_P1;HPM_P2
2022/01/27 00:02:31;;;;;;;44.97;33.07;;;0.70;99.90;;;;;;4975630;28;20939;-78
2022/01/27 00:05:10;;;;;;;45.47;32.73;;;0.70;99.90;;;;;;4983811;28;20469;-79
2022/01/27 00:07:37;;;;;;;44.07;32.87;;;0.70;99.90;;;;;;4968857;28;20473;-78
2022/01/27 00:10:15;;;;;;;44.30;34.53;;;0.70;99.90;;;;;;4969534;28;20449;-78
2022/01/27 00:12:43;;;;;;;44.23;34.53;;;0.60;99.90;;;;;;4977291;28;20444;-77
2022/01/27 00:15:11;;;;;;;43.80;33.20;;;0.60;99.90;;;;;;4977680;28;20541;-77
2022/01/27 00:17:42;;;;;;;46.00;34.70;;;0.60;99.90;;;;;;4975271;28;20504;-77
2022/01/27 00:20:12;;;;;;;48.77;34.37;;;0.60;99.90;;;;;;4972623;28;20493;-80
2022/01/27 00:22:39;;;;;;;43.10;33.00;;;0.60;99.90;;;;;;4974114;28;20446;-79
2022/01/27 00:25:08;;;;;;;45.53;33.73;;;0.60;99.90;;;;;;4977402;28;20520;-79
2022/01/27 00:27:35;;;;;;;40.50;31.87;;;0.60;99.90;;;;;;4974736;28;20451;-78
2022/01/27 00:30:03;;;;;;;47.43;35.73;;;0.60;99.90;;;;;;4975080;28;20966;-77
2022/01/27 00:32:31;;;;;;;48.90;35.03;;;0.50;99.90;;;;;;4975014;28;20438;-79
2022/01/27 00:34:58;;;;;;;49.67;35.90;;;0.60;99.90;;;;;;4977564;28;20523;-78
2022/01/27 00:37:25;;;;;;;46.37;34.00;;;0.50;99.90;;;;;;4975724;28;20492;-78
2022/01/27 00:39:51;;;;;;;50.23;35.73;;;0.50;99.90;;;;;;4976693;28;20871;-78
2022/01/27 00:42:20;;;;;;;49.77;35.80;;;0.50;99.90;;;;;;4976899;28;20449;-79
2022/01/27 00:44:47;;;;;;;41.57;32.13;;;0.50;99.90;;;;;;4975310;28;20450;-78
2022/01/27 00:47:14;;;;;;;46.37;34.57;;;0.50;99.90;;;;;;4973889;28;20454;-78
2022/01/27 00:49:41;;;;;;;42.70;32.77;;;0.50;99.90;;;;;;4974989;28;20464;-79
2022/01/27 00:52:14;;;;;;;49.50;36.50;;;0.50;99.90;;;;;;4976617;28;20441;-79
2022/01/27 00:54:40;;;;;;;44.87;34.33;;;0.50;99.90;;;;;;4976695;28;20442;-80
2022/01/27 00:57:13;;;;;;;46.07;32.63;;;0.40;99.90;;;;;;4976080;28;20496;-79
2022/01/27 00:59:52;;;;;;;46.40;34.57;;;0.40;99.90;;;;;;4973262;28;20504;-78
2022/01/27 01:02:29;;;;;;;47.83;33.97;;;0.40;99.90;;;;;;4975662;28;20453;-78
2022/01/27 01:05:08;;;;;;;50.07;35.73;;;0.40;99.90;;;;;;4975950;28;20878;-76
2022/01/27 01:07:39;;;;;;;44.53;31.63;;;0.30;99.90;;;;;;4968030;28;20449;-78
2022/01/27 01:10:50;;;;;;;44.20;33.50;;;0.30;99.90;;;;;;4974380;28;20839;-78
2022/01/27 01:16:01;;;;;;;50.37;35.50;;;0.40;99.90;;;;;;4982021;28;20476;-79
2022/01/27 01:18:41;;;;;;;45.03;34.27;;;0.30;99.90;;;;;;4969481;28;21002;-79
2022/01/27 01:29:53;;;;;;;43.67;32.40;;;0.40;99.90;;;;;;4951278;28;20442;-79
2022/01/27 01:32:37;;;;;;;44.67;33.37;;;0.40;99.90;;;;;;4951197;28;21047;-79
2022/01/27 01:35:06;;;;;;;49.80;35.33;;;0.40;99.90;;;;;;4960169;28;20538;-78
2022/01/27 01:37:37;;;;;;;47.57;33.83;;;0.40;99.90;;;;;;4973194;28;20557;-77
2022/01/27 01:40:06;;;;;;;44.77;34.20;;;0.30;99.90;;;;;;4957396;28;20544;-79
2022/01/27 01:42:32;;;;;;;48.57;34.77;;;0.40;99.90;;;;;;4956662;28;21002;-79
2022/01/27 01:45:02;;;;;;;42.90;32.80;;;0.40;99.90;;;;;;4976744;28;20437;-79
2022/01/27 01:47:30;;;;;;;45.30;32.77;;;0.40;99.90;;;;;;4967849;28;20878;-78
2022/01/27 01:49:57;;;;;;;41.87;32.27;;;0.40;99.90;;;;;;4973632;28;20520;-80
2022/01/27 01:52:25;;;;;;;42.33;33.20;;;0.30;99.90;;;;;;4976671;28;20465;-78
2022/01/27 01:54:52;;;;;;;40.90;31.60;;;0.30;99.90;;;;;;4976709;28;20829;-78
2022/01/27 01:57:18;;;;;;;40.03;31.23;;;0.30;99.90;;;;;;4967784;28;20493;-78
2022/01/27 01:59:45;;;;;;;39.00;31.20;;;0.30;99.90;;;;;;4956090;28;20454;-78
2022/01/27 02:02:13;;;;;;;41.90;32.37;;;0.20;99.90;;;;;;4946706;28;20475;-79
2022/01/27 02:04:41;;;;;;;43.50;33.60;;;0.20;99.90;;;;;;4972490;28;20800;-78
2022/01/27 02:07:15;;;;;;;41.00;31.87;;;0.20;99.90;;;;;;4979431;28;20448;-79
2022/01/27 02:10:02;;;;;;;46.53;32.43;;;0.10;99.90;;;;;;4973894;28;20580;-79
2022/01/27 02:18:06;;;;;;;44.00;31.40;;;0.00;99.90;;;;;;4971907;28;20465;-78
2022/01/27 02:20:36;;;;;;;48.23;33.17;;;0.00;99.90;;;;;;4954941;28;20454;-79
2022/01/27 02:23:05;;;;;;;43.33;33.13;;;0.00;99.90;;;;;;4979957;28;20861;-78
2022/01/27 02:25:32;;;;;;;44.70;31.37;;;0.00;99.90;;;;;;4987859;28;20480;-79
2022/01/27 02:27:59;;;;;;;45.17;32.57;;;-0.10;99.90;;;;;;4982414;28;20446;-79
2022/01/27 02:30:27;;;;;;;43.90;31.63;;;0.00;99.90;;;;;;4966577;28;20435;-79
2022/01/27 02:32:54;;;;;;;42.40;31.73;;;0.00;99.90;;;;;;4976283;28;20468;-78
2022/01/27 02:35:24;;;;;;;46.40;31.73;;;0.00;99.90;;;;;;4983687;28;20445;-78
2022/01/27 02:37:53;;;;;;;40.77;31.43;;;0.00;99.90;;;;;;4982337;28;20453;-79
2022/01/27 02:40:24;;;;;;;40.80;30.40;;;0.00;99.90;;;;;;4980109;28;20430;-77
2022/01/27 02:42:51;;;;;;;42.30;31.97;;;0.00;99.90;;;;;;4981011;28;20524;-78
2022/01/27 02:45:23;;;;;;;47.73;33.03;;;0.00;99.90;;;;;;4968367;28;20464;-77
2022/01/27 02:47:50;;;;;;;43.83;33.40;;;0.00;99.90;;;;;;4980256;28;20998;-79
2022/01/27 02:50:17;;;;;;;47.93;33.83;;;0.00;99.90;;;;;;4985699;28;20500;-78
2022/01/27 02:52:44;;;;;;;43.17;32.87;;;0.00;99.90;;;;;;4983979;28;20462;-79
2022/01/27 02:55:12;;;;;;;49.37;35.17;;;-0.10;99.90;;;;;;4983924;28;20484;-79
2022/01/27 02:57:40;;;;;;;41.93;32.70;;;-0.10;99.90;;;;;;4980269;28;20488;-79
2022/01/27 03:00:08;;;;;;;52.27;34.07;;;-0.10;99.90;;;;;;4979057;28;20447;-77
2022/01/27 03:02:36;;;;;;;47.50;34.13;;;0.00;99.90;;;;;;4981305;28;20524;-79
2022/01/27 03:05:04;;;;;;;49.93;34.23;;;0.00;99.90;;;;;;4973204;28;20544;-78
2022/01/27 03:07:31;;;;;;;49.50;34.93;;;-0.10;99.90;;;;;;4980079;28;20908;-78
2022/01/27 03:09:58;;;;;;;44.77;34.20;;;-0.10;99.90;;;;;;4980142;28;20456;-78
2022/01/27 03:12:28;;;;;;;49.00;33.90;;;-0.20;99.90;;;;;;4965838;28;20472;-78
2022/01/27 03:14:55;;;;;;;46.47;33.53;;;-0.20;99.90;;;;;;4982347;28;20465;-79
2022/01/27 03:17:22;;;;;;;48.60;34.17;;;-0.30;99.90;;;;;;4967852;28;21229;-77
2022/01/27 03:19:51;;;;;;;47.10;32.93;;;-0.30;99.90;;;;;;4978332;28;20440;-79
2022/01/27 03:22:18;;;;;;;45.40;32.27;;;-0.30;99.90;;;;;;4979685;28;20480;-79
2022/01/27 03:24:45;;;;;;;45.30;33.00;;;-0.30;99.90;;;;;;4982803;28;20858;-79
2022/01/27 03:27:18;;;;;;;45.83;33.47;;;-0.30;99.90;;;;;;4978261;28;20437;-79
2022/01/27 03:29:46;;;;;;;43.70;33.63;;;-0.30;99.90;;;;;;4960273;28;20546;-78
2022/01/27 03:32:13;;;;;;;46.37;33.43;;;-0.30;99.90;;;;;;4979271;28;20468;-79
2022/01/27 03:34:40;;;;;;;41.83;31.27;;;-0.30;99.90;;;;;;4982966;28;20440;-79
2022/01/27 03:37:07;;;;;;;45.53;33.23;;;-0.40;99.90;;;;;;4963233;28;21061;-79
2022/01/27 03:39:36;;;;;;;53.10;36.03;;;-0.40;99.90;;;;;;4983233;28;20445;-77
2022/01/27 03:42:04;;;;;;;52.17;35.77;;;-0.30;99.90;;;;;;4971181;28;20509;-81
2022/01/27 03:44:30;;;;;;;47.83;33.40;;;-0.30;99.90;;;;;;4973644;28;20495;-80
2022/01/27 03:46:59;;;;;;;45.93;33.37;;;-0.40;99.90;;;;;;4978303;28;20955;-81
2022/01/27 03:49:26;;;;;;;43.00;31.60;;;-0.40;99.90;;;;;;4976544;28;20457;-82
2022/01/27 03:51:58;;;;;;;45.90;33.90;;;-0.40;99.90;;;;;;4970854;28;20520;-84
2022/01/27 03:54:25;;;;;;;49.30;34.57;;;-0.40;99.90;;;;;;4975361;28;20453;-82
2022/01/27 03:56:52;;;;;;;43.27;31.33;;;-0.30;99.90;;;;;;4973599;28;20469;-84
2022/01/27 03:59:19;;;;;;;42.23;31.23;;;-0.30;99.90;;;;;;4978510;28;20445;-83
2022/01/27 04:01:46;;;;;;;45.83;33.10;;;-0.30;99.90;;;;;;4983107;28;20457;-84
2022/01/27 04:04:15;;;;;;;50.00;36.37;;;-0.40;99.90;;;;;;4966495;28;20451;-83
2022/01/27 04:06:42;;;;;;;52.23;36.20;;;-0.40;99.90;;;;;;4982478;28;21001;-84
2022/01/27 04:09:11;;;;;;;48.60;35.50;;;-0.50;99.90;;;;;;4985127;28;20448;-82
2022/01/27 04:11:40;;;;;;;54.47;35.23;;;-0.40;99.90;;;;;;4994635;28;20465;-85
2022/01/27 04:14:08;;;;;;;51.53;36.07;;;-0.40;99.90;;;;;;4977193;28;20450;-83
2022/01/27 04:16:35;;;;;;;47.70;33.33;;;-0.50;99.90;;;;;;4979340;28;20504;-81
2022/01/27 04:19:02;;;;;;;46.60;33.53;;;-0.50;99.90;;;;;;4974469;28;20437;-81
2022/01/27 04:21:30;;;;;;;43.87;33.53;;;-0.50;99.90;;;;;;4972411;28;20481;-81
2022/01/27 04:23:57;;;;;;;44.67;32.37;;;-0.60;99.90;;;;;;4968768;28;20438;-81
2022/01/27 04:26:30;;;;;;;44.77;33.03;;;-0.60;99.90;;;;;;4971044;28;20456;-80
2022/01/27 04:28:57;;;;;;;44.93;31.40;;;-0.50;99.90;;;;;;4980838;28;20495;-81
2022/01/27 04:31:26;;;;;;;40.53;31.40;;;-0.60;99.90;;;;;;4982363;28;20822;-81
2022/01/27 04:33:53;;;;;;;42.93;32.13;;;-0.60;99.90;;;;;;4981375;28;20527;-82
2022/01/27 04:36:25;;;;;;;43.93;32.63;;;-0.60;99.90;;;;;;4987593;28;20476;-81
2022/01/27 04:39:01;;;;;;;41.40;31.17;;;-0.60;99.90;;;;;;4986852;28;20440;-81
2022/01/27 04:41:35;;;;;;;42.40;31.93;;;-0.60;99.90;;;;;;4973988;28;20472;-77
2022/01/27 04:44:11;;;;;;;43.97;31.90;;;-0.60;99.90;;;;;;4986351;28;20436;-80
2022/01/27 04:46:44;;;;;;;37.43;29.77;;;-0.70;99.90;;;;;;4962832;28;20451;-78
2022/01/27 04:49:12;;;;;;;43.20;31.83;;;-0.60;99.90;;;;;;4977657;28;20444;-78
2022/01/27 04:51:39;;;;;;;45.70;31.73;;;-0.70;99.90;;;;;;4966403;28;20515;-79
2022/01/27 04:54:13;;;;;;;40.37;29.40;;;-0.70;99.90;;;;;;4969100;28;20483;-78
2022/01/27 04:56:41;;;;;;;39.63;30.30;;;-0.60;99.90;;;;;;4980402;28;20484;-79
2022/01/27 04:59:14;;;;;;;36.97;29.10;;;-0.70;99.90;;;;;;4981405;28;20454;-78
2022/01/27 05:01:45;;;;;;;43.57;32.17;;;-0.70;99.90;;;;;;4987424;28;20476;-78
2022/01/27 05:04:14;;;;;;;41.90;31.70;;;-0.70;99.90;;;;;;4984693;28;20961;-77
2022/01/27 05:06:41;;;;;;;44.63;32.60;;;-0.70;99.90;;;;;;4973835;28;20501;-78
2022/01/27 05:09:10;;;;;;;39.20;29.77;;;-0.70;99.90;;;;;;4983733;28;20444;-78
2022/01/27 05:11:43;;;;;;;50.27;33.37;;;-0.80;99.90;;;;;;4993703;28;20499;-78
2022/01/27 05:14:15;;;;;;;45.40;32.40;;;-0.90;99.90;;;;;;4985580;28;20448;-79
2022/01/27 05:16:42;;;;;;;42.40;30.57;;;-0.90;99.90;;;;;;4980414;28;20480;-79
2022/01/27 05:19:09;;;;;;;41.97;31.87;;;-1.00;99.90;;;;;;4986178;28;20551;-79
2022/01/27 05:21:37;;;;;;;45.77;32.40;;;-1.00;99.90;;;;;;4981150;28;20472;-79
2022/01/27 05:24:05;;;;;;;42.00;30.93;;;-1.00;99.90;;;;;;4992055;28;20498;-79
2022/01/27 05:26:34;;;;;;;42.27;30.63;;;-1.10;99.90;;;;;;4981900;28;20448;-78
2022/01/27 05:29:01;;;;;;;41.37;30.53;;;-1.10;99.90;;;;;;4983168;28;20453;-78
2022/01/27 05:31:28;;;;;;;38.93;29.53;;;-1.20;99.90;;;;;;4979527;28;20436;-77
2022/01/27 05:33:54;;;;;;;45.73;32.57;;;-1.20;99.90;;;;;;4967377;28;20456;-78
2022/01/27 05:36:21;;;;;;;45.67;32.67;;;-1.20;99.90;;;;;;4985883;28;20436;-78
2022/01/27 05:38:48;;;;;;;41.03;30.63;;;-1.30;99.90;;;;;;4983237;28;20452;-78
2022/01/27 05:41:16;;;;;;;47.83;31.83;;;-1.30;99.90;;;;;;4971176;28;20458;-78
2022/01/27 05:43:44;;;;;;;39.67;30.57;;;-1.30;99.90;;;;;;4977727;28;20450;-78
2022/01/27 05:46:12;;;;;;;44.73;31.40;;;-1.30;99.90;;;;;;4984562;28;20456;-78
2022/01/27 05:48:39;;;;;;;38.27;29.03;;;-1.30;99.90;;;;;;4981803;28;20441;-79
2022/01/27 05:51:06;;;;;;;47.77;32.47;;;-1.30;99.90;;;;;;4975118;28;20468;-78
2022/01/27 05:53:35;;;;;;;45.10;32.03;;;-1.30;99.90;;;;;;4967735;28;20469;-79
2022/01/27 05:56:03;;;;;;;42.70;30.67;;;-1.40;99.90;;;;;;4983094;28;20528;-79
2022/01/27 05:58:30;;;;;;;43.67;32.40;;;-1.40;99.90;;;;;;4955688;28;21065;-79
2022/01/27 06:01:00;;;;;;;48.17;33.03;;;-1.40;99.90;;;;;;4977920;28;20437;-78
2022/01/27 06:03:27;;;;;;;44.77;31.63;;;-1.50;99.90;;;;;;4983976;28;20563;-79
2022/01/27 06:05:54;;;;;;;44.33;31.60;;;-1.60;99.90;;;;;;4954875;28;20499;-80
2022/01/27 06:08:20;;;;;;;44.53;31.00;;;-1.60;99.90;;;;;;4977649;28;20454;-79
2022/01/27 06:10:47;;;;;;;40.43;29.67;;;-1.70;99.90;;;;;;4987036;28;20515;-79
2022/01/27 06:13:17;;;;;;;40.73;30.70;;;-1.70;99.90;;;;;;4986070;28;20865;-79
2022/01/27 06:15:46;;;;;;;46.87;31.27;;;-1.70;99.90;;;;;;4977374;28;20564;-78
2022/01/27 06:18:16;;;;;;;42.47;31.07;;;-1.70;99.90;;;;;;4983250;28;20491;-79
2022/01/27 06:20:45;;;;;;;43.50;29.83;;;-1.70;99.90;;;;;;4984838;28;20471;-78
2022/01/27 06:23:12;;;;;;;37.87;30.30;;;-1.70;99.90;;;;;;4990301;28;20468;-79
2022/01/27 06:25:39;;;;;;;44.83;31.97;;;-1.70;99.90;;;;;;4987125;28;20456;-78
2022/01/27 06:28:06;;;;;;;43.80;31.50;;;-1.80;99.90;;;;;;4978040;28;20445;-78
2022/01/27 06:30:34;;;;;;;45.23;32.00;;;-1.90;99.90;;;;;;4975686;28;20943;-79
2022/01/27 06:33:01;;;;;;;40.27;30.17;;;-1.90;99.90;;;;;;4988503;28;20551;-78
2022/01/27 06:35:30;;;;;;;44.97;30.33;;;-1.90;99.90;;;;;;4956759;29;20438;-78
2022/01/27 06:37:57;;;;;;;42.50;31.37;;;-2.00;99.90;;;;;;4942121;28;20474;-77
2022/01/27 06:40:23;;;;;;;41.90;28.83;;;-2.00;99.90;;;;;;4968766;28;20576;-78
2022/01/27 06:42:50;;;;;;;39.97;30.67;;;-2.00;99.90;;;;;;4981925;28;20455;-78
2022/01/27 06:45:17;;;;;;;46.30;32.00;;;-2.00;99.90;;;;;;4984106;28;20471;-78
2022/01/27 06:47:44;;;;;;;42.77;30.57;;;-2.10;99.90;;;;;;4974905;28;20437;-78
2022/01/27 06:50:11;;;;;;;43.20;30.93;;;-2.10;99.90;;;;;;4979005;28;20946;-79
2022/01/27 06:52:41;;;;;;;38.30;28.93;;;-2.10;99.90;;;;;;4984244;28;20460;-78
2022/01/27 06:55:08;;;;;;;42.67;29.80;;;-2.00;99.90;;;;;;4989952;28;20441;-78
2022/01/27 06:57:35;;;;;;;44.47;30.80;;;-2.00;99.90;;;;;;4983524;28;20473;-78
2022/01/27 07:00:04;;;;;;;39.60;31.80;;;-2.00;99.90;;;;;;4984629;28;20507;-78
2022/01/27 07:02:30;;;;;;;38.17;29.17;;;-2.10;99.90;;;;;;4980836;28;20473;-78
2022/01/27 07:04:57;;;;;;;41.43;30.93;;;-2.10;99.90;;;;;;4985005;28;20440;-77
2022/01/27 07:07:24;;;;;;;47.00;32.27;;;-2.00;99.90;;;;;;4975369;28;20985;-78
2022/01/27 07:09:52;;;;;;;43.27;30.27;;;-2.00;99.90;;;;;;4966660;28;20450;-78
2022/01/27 07:12:19;;;;;;;39.97;29.27;;;-2.00;99.90;;;;;;4966620;28;20477;-78
2022/01/27 07:14:46;;;;;;;41.23;30.57;;;-2.00;99.90;;;;;;4983438;28;20437;-78
2022/01/27 07:17:14;;;;;;;38.03;29.50;;;-2.00;99.90;;;;;;4966024;28;20476;-78
2022/01/27 07:19:41;;;;;;;39.57;28.80;;;-2.00;99.90;;;;;;4983256;28;20461;-77
2022/01/27 07:22:08;;;;;;;40.03;29.53;;;-1.90;99.90;;;;;;5002817;22;22563;-79
2022/01/27 07:24:35;;;;;;;43.93;31.30;;;-1.90;99.90;;;;;;5023497;28;20443;-79
2022/01/27 07:27:03;;;;;;;39.87;30.87;;;-2.00;99.90;;;;;;5016931;28;20435;-79
2022/01/27 07:29:30;;;;;;;43.30;31.87;;;-1.90;99.90;;;;;;5012368;28;20497;-79
2022/01/27 07:31:57;;;;;;;44.50;31.60;;;-1.90;99.90;;;;;;5020294;28;20440;-79
2022/01/27 07:34:24;;;;;;;44.97;32.30;;;-1.90;99.90;;;;;;4995887;28;20447;-79
2022/01/27 07:36:54;;;;;;;40.87;31.47;;;-1.90;99.90;;;;;;5004931;28;20443;-79
2022/01/27 07:39:21;;;;;;;43.80;29.93;;;-1.90;99.90;;;;;;5004164;28;20530;-79
2022/01/27 07:41:49;;;;;;;42.23;30.67;;;-1.90;99.90;;;;;;5002453;28;20955;-80
2022/01/27 07:44:17;;;;;;;42.33;31.80;;;-1.80;99.90;;;;;;5000619;28;20453;-78
2022/01/27 07:46:44;;;;;;;42.80;31.47;;;-1.80;99.90;;;;;;5003678;28;20838;-79
2022/01/27 07:49:11;;;;;;;39.77;30.27;;;-1.70;99.90;;;;;;5005226;28;20443;-79
2022/01/27 07:51:40;;;;;;;50.27;31.53;;;-1.70;99.90;;;;;;4997222;28;20448;-79
2022/01/27 07:54:07;;;;;;;38.83;29.93;;;-1.60;99.90;;;;;;4995361;28;20444;-79
2022/01/27 07:56:34;;;;;;;37.37;29.63;;;-1.50;99.90;;;;;;5003766;28;20442;-79
2022/01/27 07:59:01;;;;;;;40.47;29.97;;;-1.40;99.90;;;;;;5002070;28;20483;-79
2022/01/27 08:01:29;;;;;;;39.47;30.63;;;-1.40;99.90;;;;;;4983517;28;20443;-79
2022/01/27 08:03:56;;;;;;;38.27;29.70;;;-1.40;99.90;;;;;;4998013;28;20532;-79
2022/01/27 08:06:23;;;;;;;37.57;30.20;;;-1.30;99.90;;;;;;5006023;28;20439;-79
2022/01/27 08:08:50;;;;;;;46.47;32.53;;;-1.20;99.90;;;;;;4996239;28;20792;-79
2022/01/27 08:11:18;;;;;;;39.77;30.97;;;-1.20;99.90;;;;;;4997796;28;20445;-77
2022/01/27 08:13:45;;;;;;;38.63;31.00;;;-1.20;99.90;;;;;;5002202;28;20560;-79
2022/01/27 08:16:12;;;;;;;43.07;31.13;;;-1.10;99.90;;;;;;5001300;28;20437;-79
2022/01/27 08:18:43;;;;;;;42.73;31.33;;;-1.10;99.90;;;;;;5011664;28;20482;-78
2022/01/27 08:21:10;;;;;;;40.83;30.83;;;-1.00;99.90;;;;;;5009506;28;20838;-79
2022/01/27 08:23:38;;;;;;;33.67;27.93;;;-0.90;99.90;;;;;;5005072;28;20459;-79
2022/01/27 08:26:07;;;;;;;32.97;28.47;;;-0.80;99.90;;;;;;5003151;28;20506;-79
2022/01/27 08:28:40;;;;;;;35.77;30.43;;;-0.70;99.90;;;;;;5002299;28;20538;-79
2022/01/27 08:31:07;;;;;;;34.50;28.77;;;-0.60;99.90;;;;;;5000628;28;20473;-79
2022/01/27 08:33:38;;;;;;;37.77;30.20;;;-0.60;99.90;;;;;;5012550;28;20844;-79
2022/01/27 08:36:06;;;;;;;43.63;30.87;;;-0.50;99.90;;;;;;5007808;28;20445;-79
2022/01/27 08:38:36;;;;;;;37.63;30.60;;;-0.50;99.90;;;;;;5013568;28;20468;-79
2022/01/27 08:41:04;;;;;;;35.63;28.57;;;-0.50;99.90;;;;;;5008043;28;20474;-79
2022/01/27 08:43:31;;;;;;;39.83;29.53;;;-0.50;99.90;;;;;;5005344;28;20502;-79
2022/01/27 08:45:59;;;;;;;42.23;30.67;;;-0.60;99.90;;;;;;5004607;28;21046;-79
2022/01/27 08:48:28;;;;;;;35.90;29.97;;;-0.50;99.90;;;;;;5002694;28;20929;-80
2022/01/27 08:51:00;;;;;;;45.43;31.67;;;-0.40;99.90;;;;;;5003143;28;20836;-79
2022/01/27 08:53:28;;;;;;;40.60;30.63;;;-0.40;99.90;;;;;;5009385;28;20464;-79
2022/01/27 08:55:55;;;;;;;43.47;30.83;;;-0.30;99.90;;;;;;5004627;28;20458;-79
2022/01/27 08:58:25;;;;;;;40.53;29.30;;;-0.20;99.90;;;;;;4999300;28;20484;-79
2022/01/27 09:00:52;;;;;;;38.70;28.97;;;-0.10;99.90;;;;;;4997967;28;20474;-79
2022/01/27 09:03:20;;;;;;;42.67;29.67;;;0.20;99.90;;;;;;5004364;28;20526;-80
2022/01/27 09:05:47;;;;;;;40.77;30.40;;;0.50;99.90;;;;;;5004277;28;20879;-79
2022/01/27 09:08:13;;;;;;;37.73;29.47;;;0.60;99.90;;;;;;5002167;28;20944;-79
2022/01/27 09:10:42;;;;;;;37.30;29.57;;;0.90;99.90;;;;;;5008307;28;20457;-79
2022/01/27 09:13:09;;;;;;;34.40;28.77;;;1.30;99.90;;;;;;5008436;28;20472;-81
2022/01/27 09:15:36;;;;;;;40.53;30.50;;;1.70;99.90;;;;;;4999479;28;20510;-79
2022/01/27 09:18:03;;;;;;;36.63;29.40;;;1.80;99.90;;;;;;5007785;28;20478;-81
2022/01/27 09:20:30;;;;;;;35.20;29.00;;;1.80;99.90;;;;;;5008908;28;20497;-80
2022/01/27 09:22:58;;;;;;;34.87;28.80;;;1.80;99.90;;;;;;5004484;28;21078;-80
2022/01/27 09:25:30;;;;;;;36.10;29.23;;;1.80;99.90;;;;;;5003948;28;20448;-80
2022/01/27 09:27:59;;;;;;;39.20;30.80;;;1.60;99.90;;;;;;5005197;28;20789;-80
2022/01/27 09:30:27;;;;;;;36.73;27.63;;;1.40;99.90;;;;;;5011038;28;20429;-81
2022/01/27 09:32:55;;;;;;;38.00;28.33;;;1.40;99.90;;;;;;5003663;28;20530;-80
2022/01/27 09:35:23;;;;;;;36.23;29.67;;;1.40;99.90;;;;;;4999449;28;21197;-80
2022/01/27 09:37:50;;;;;;;35.77;29.30;;;1.50;99.90;;;;;;4999840;28;20439;-80
2022/01/27 09:40:17;;;;;;;40.87;30.27;;;1.40;99.90;;;;;;5003273;28;20456;-80
2022/01/27 09:42:49;;;;;;;36.23;29.17;;;1.50;99.90;;;;;;5005762;28;20467;-80
2022/01/27 09:45:17;;;;;;;35.97;28.47;;;1.60;99.90;;;;;;5005405;28;20448;-78
2022/01/27 09:47:54;;;;;;;36.13;27.80;;;1.70;99.90;;;;;;5008599;28;20774;-79
2022/01/27 09:50:30;;;;;;;37.03;29.00;;;1.50;99.90;;;;;;5004165;28;20488;-80
2022/01/27 09:52:57;;;;;;;30.03;26.87;;;1.40;99.90;;;;;;4997667;28;20479;-79
2022/01/27 09:55:24;;;;;;;34.73;28.47;;;1.40;99.90;;;;;;5012354;28;20434;-80
2022/01/27 09:57:53;;;;;;;32.53;26.83;;;1.40;99.90;;;;;;5013410;28;20436;-80
2022/01/27 10:00:22;;;;;;;32.20;26.37;;;1.40;99.90;;;;;;5012453;28;20442;-80
2022/01/27 10:03:02;;;;;;;30.30;25.93;;;1.30;99.90;;;;;;5011089;28;20476;-80
2022/01/27 10:05:29;;;;;;;31.77;26.63;;;1.30;99.90;;;;;;5003643;28;20548;-80
2022/01/27 10:08:02;;;;;;;32.37;26.73;;;1.20;99.90;;;;;;5001359;28;20465;-80
2022/01/27 10:10:34;;;;;;;34.60;28.67;;;1.20;99.90;;;;;;4984749;28;20451;-80
2022/01/27 10:13:03;;;;;;;34.90;27.27;;;1.30;99.90;;;;;;4999244;28;20726;-81
2022/01/27 10:15:37;;;;;;;37.30;27.80;;;1.30;99.90;;;;;;4995851;28;20470;-80
2022/01/27 10:18:09;;;;;;;34.43;27.57;;;1.30;99.90;;;;;;5005202;28;21004;-80
2022/01/27 10:20:38;;;;;;;35.53;27.73;;;1.30;99.90;;;;;;4999464;28;21010;-80
2022/01/27 10:23:18;;;;;;;32.17;25.87;;;1.30;99.90;;;;;;5007042;28;20473;-80
2022/01/27 10:25:49;;;;;;;31.27;24.57;;;1.40;99.90;;;;;;4999838;28;20451;-80
2022/01/27 10:28:29;;;;;;;31.13;24.97;;;1.40;99.90;;;;;;5002895;28;20450;-80
2022/01/27 10:31:06;;;;;;;32.57;26.53;;;1.60;99.90;;;;;;5002271;28;20479;-80
2022/01/27 10:33:43;;;;;;;31.13;25.50;;;1.50;99.90;;;;;;4992503;28;20818;-80
2022/01/27 10:36:24;;;;;;;32.30;26.17;;;1.60;99.90;;;;;;5007511;28;20812;-80
2022/01/27 10:38:53;;;;;;;32.17;26.17;;;1.50;99.90;;;;;;5001053;28;20472;-81
2022/01/27 10:41:21;;;;;;;30.10;25.37;;;1.50;99.90;;;;;;4996688;28;20436;-80
2022/01/27 10:43:50;;;;;;;32.30;24.97;;;1.60;99.90;;;;;;5005465;28;20463;-80
2022/01/27 10:46:24;;;;;;;34.90;27.13;;;1.80;99.90;;;;;;5002500;28;20541;-80
2022/01/27 10:48:58;;;;;;;27.80;24.83;;;1.80;99.90;;;;;;5002728;28;20561;-80
2022/01/27 10:51:28;;;;;;;32.03;24.67;;;1.90;99.90;;;;;;4999189;28;20477;-80
2022/01/27 10:54:03;;;;;;;29.50;24.30;;;1.90;99.90;;;;;;5001698;28;20462;-80
2022/01/27 10:56:32;;;;;;;29.73;23.73;;;1.90;99.90;;;;;;4991107;28;20447;-79
2022/01/27 10:59:02;;;;;;;28.47;25.40;;;1.80;99.90;;;;;;4999979;28;20470;-80
2022/01/27 11:01:38;;;;;;;30.23;24.50;;;1.90;99.90;;;;;;4995514;28;20455;-80
2022/01/27 11:04:07;;;;;;;30.00;24.10;;;1.90;99.90;;;;;;5005845;28;20978;-80
2022/01/27 11:06:35;;;;;;;29.00;24.73;;;2.00;99.90;;;;;;5001660;28;20448;-81
2022/01/27 11:09:07;;;;;;;31.50;25.63;;;2.00;99.90;;;;;;5000944;28;20452;-78
2022/01/27 11:11:36;;;;;;;27.33;23.93;;;2.00;99.90;;;;;;4986196;28;20441;-79
2022/01/27 11:14:04;;;;;;;28.73;24.30;;;2.10;99.90;;;;;;4999836;28;20455;-79
2022/01/27 11:16:36;;;;;;;29.10;24.53;;;2.20;99.90;;;;;;5006692;28;20475;-78
2022/01/27 11:19:20;;;;;;;31.60;25.03;;;2.20;99.90;;;;;;5011594;28;20500;-81
2022/01/27 11:21:52;;;;;;;30.30;25.27;;;2.30;99.90;;;;;;5011602;28;20451;-79
2022/01/27 11:24:28;;;;;;;29.30;25.03;;;2.40;99.90;;;;;;4998258;28;20475;-79
2022/01/27 11:26:58;;;;;;;31.77;26.13;;;2.60;99.90;;;;;;5005432;28;20433;-79
2022/01/27 11:29:26;;;;;;;34.07;25.27;;;2.50;99.90;;;;;;5006456;28;20433;-81
2022/01/27 11:32:16;;;;;;;29.50;24.83;;;2.50;99.90;;;;;;4997824;28;20502;-81
2022/01/27 11:34:51;;;;;;;30.40;24.20;;;2.50;99.90;;;;;;5000793;28;20468;-81
2022/01/27 11:37:30;;;;;;;33.33;24.73;;;2.70;99.90;;;;;;5009249;28;20242;-81
2022/01/27 11:40:02;;;;;;;28.30;23.53;;;2.80;99.90;;;;;;5004203;28;20258;-81
2022/01/27 11:42:42;;;;;;;29.13;23.93;;;2.90;99.90;;;;;;4997912;28;20464;-82
2022/01/27 11:45:28;;;;;;;32.07;24.23;;;3.10;99.90;;;;;;5005778;28;20516;-81
2022/01/27 11:48:00;;;;;;;29.40;22.43;;;3.10;99.90;;;;;;5001980;28;20960;-81
2022/01/27 11:50:33;;;;;;;26.50;16.10;;;3.10;99.90;;;;;;5003884;28;20189;-81
2022/01/27 11:53:02;;;;;;;25.63;15.87;;;3.20;99.90;;;;;;5004497;28;20490;-81
2022/01/27 11:55:45;;;;;;;23.40;15.57;;;3.40;99.90;;;;;;4988580;28;20251;-80
2022/01/27 11:58:17;;;;;;;25.30;17.57;;;3.50;99.90;;;;;;5001709;28;20260;-80
2022/01/27 12:01:07;;;;;;;28.97;23.47;;;3.60;99.90;;;;;;5004591;28;20300;-81
2022/01/27 12:03:36;;;;;;;30.10;19.83;;;3.60;99.90;;;;;;4994838;28;20837;-80
2022/01/27 12:06:21;;;;;;;27.70;17.40;;;3.60;99.90;;;;;;5002380;28;20193;-80
2022/01/27 12:08:48;;;;;;;26.00;16.17;;;3.80;99.90;;;;;;5010100;28;20602;-80
2022/01/27 12:11:45;;;;;;;27.37;16.63;;;3.90;99.90;;;;;;5012145;28;20228;-81
2022/01/27 12:14:14;;;;;;;28.00;16.13;;;4.00;99.90;;;;;;5011085;28;20204;-79
2022/01/27 12:16:53;;;;;;;24.57;16.40;;;4.10;99.90;;;;;;5002717;28;20206;-79
2022/01/27 12:19:22;;;;;;;27.27;16.07;;;4.10;99.90;;;;;;5000545;28;20224;-79
2022/01/27 12:22:04;;;;;;;25.70;16.63;;;4.10;99.90;;;;;;4999869;28;20236;-80
2022/01/27 12:24:32;;;;;;;30.87;16.90;;;4.10;99.90;;;;;;4993141;28;20218;-80
2022/01/27 12:27:02;;;;;;;26.77;16.20;;;4.10;99.90;;;;;;5002875;28;20198;-80
2022/01/27 12:29:34;;;;;;;22.70;15.20;;;4.20;99.90;;;;;;4992794;28;20251;-80
2022/01/27 12:32:03;;;;;;;23.33;15.17;;;4.30;99.90;;;;;;5007920;28;20751;-80
2022/01/27 12:34:33;;;;;;;22.53;14.63;;;4.30;99.90;;;;;;4999444;28;20203;-79
2022/01/27 12:37:03;;;;;;;23.57;13.80;;;4.30;99.90;;;;;;5007910;28;20561;-80
2022/01/27 12:39:33;;;;;;;27.20;14.03;;;4.50;99.90;;;;;;5003231;28;20271;-80
2022/01/27 12:42:01;;;;;;;19.13;13.17;;;4.60;99.90;;;;;;5001628;28;20220;-80
2022/01/27 12:44:30;;;;;;;23.03;20.03;;;4.80;99.90;;;;;;4985240;28;20250;-79
2022/01/27 12:47:18;;;;;;;20.50;16.47;;;4.90;99.90;;;;;;5000477;28;20739;-79
2022/01/27 12:49:48;;;;;;;18.57;13.63;;;5.00;99.90;;;;;;4991677;28;20247;-79
2022/01/27 12:52:17;;;;;;;16.70;14.67;;;5.00;99.90;;;;;;5005733;28;20214;-79
2022/01/27 12:54:47;;;;;;;17.23;10.97;;;5.00;99.90;;;;;;5009190;28;20694;-80
2022/01/27 12:57:14;;;;;;;17.23;15.23;;;5.10;99.90;;;;;;5010411;28;20268;-80
2022/01/27 12:59:44;;;;;;;17.90;16.00;;;5.10;99.90;;;;;;5004567;28;20307;-80
2022/01/27 13:02:12;;;;;;;17.90;16.07;;;5.30;99.90;;;;;;4997987;28;20228;-79
2022/01/27 13:04:42;;;;;;;16.80;15.10;;;5.40;99.90;;;;;;5007274;28;20249;-79